createdAt,value
2023-04-02T00:27:13.630Z,100853.31
2023-04-02T00:28:20.481Z,100858.56
2023-04-02T00:29:29.990Z,100854.75
2023-04-02T00:30:35.188Z,100863.50
2023-04-02T00:31:45.019Z,100863.28
2023-04-02T00:32:50.872Z,100855.69
2023-04-02T00:33:57.617Z,100853.53
2023-04-02T00:35:03.265Z,100855.19
2023-04-02T00:36:11.236Z,100854.97
2023-04-02T00:37:20.225Z,100858.53
2023-04-02T00:38:30.699Z,100863.75
2023-04-02T00:39:40.962Z,100856.97
2023-04-02T00:40:47.507Z,100863.28
2023-04-02T00:42:00.227Z,100861.41
2023-04-02T00:43:09.035Z,100874.56
2023-04-02T00:44:17.561Z,100872.66
2023-04-02T00:45:26.857Z,100869.44
2023-04-02T00:46:36.121Z,100876.31
2023-04-02T00:47:42.158Z,100879.66
2023-04-02T00:48:52.565Z,100882.97
2023-04-02T00:50:02.588Z,100874.31
2023-04-02T00:51:15.783Z,100890.44
2023-04-02T00:52:25.692Z,100885.31
2023-04-02T00:53:32.722Z,100889.72
2023-04-02T00:54:45.050Z,100884.25
2023-04-02T00:55:51.224Z,100886.50
2023-04-02T00:56:59.638Z,100887.06
2023-04-02T00:58:08.172Z,100886.59
2023-04-02T00:59:23.603Z,100890.72
2023-04-02T01:00:33.676Z,100890.50
2023-04-02T01:01:44.103Z,100886.69
2023-04-02T01:03:24.172Z,100886.44
2023-04-02T01:04:34.005Z,100889.53
2023-04-02T01:05:40.543Z,100890.09
2023-04-02T01:06:47.551Z,100891.75
2023-04-02T01:08:07.607Z,100892.59
2023-04-02T01:09:22.923Z,100891.53
2023-04-02T01:10:51.692Z,100897.59
2023-04-02T01:12:29.930Z,100890.78
2023-04-02T01:13:40.563Z,100893.88
2023-04-02T01:14:57.046Z,100894.69
2023-04-02T01:16:08.939Z,100887.06
2023-04-02T01:17:35.493Z,100898.59
2023-04-02T01:18:51.771Z,100897.28
2023-04-02T01:20:13.726Z,100903.38
2023-04-02T01:21:35.802Z,100905.63
2023-04-02T01:22:49.567Z,100905.97
2023-04-02T01:24:01.923Z,100908.44
2023-04-02T01:25:10.003Z,100904.16
2023-04-02T02:03:19.962Z,100926.84
2023-04-02T02:04:25.194Z,100934.81
2023-04-02T02:05:32.087Z,100925.50
2023-04-02T02:06:37.689Z,100929.63
2023-04-02T02:07:44.227Z,100927.25
2023-04-02T02:08:51.572Z,100928.66
2023-04-02T02:09:58.240Z,100928.97
2023-04-02T02:11:03.971Z,100927.66
2023-04-02T02:12:10.794Z,100925.22
2023-04-02T02:13:17.682Z,100930.22
2023-04-02T02:14:26.387Z,100928.88
2023-04-02T02:15:33.835Z,100931.97
2023-04-02T02:16:45.047Z,100926.22
2023-04-02T02:17:50.736Z,100928.22
2023-04-02T02:19:01.916Z,100932.34
2023-04-02T02:20:12.475Z,100932.13
2023-04-02T02:21:27.069Z,100930.78
2023-04-02T02:22:35.298Z,100932.19
2023-04-02T02:23:40.569Z,100927.84
2023-04-02T02:24:47.082Z,100930.09
2023-04-02T02:25:52.961Z,100918.84
2023-04-02T02:27:08.044Z,100920.84
2023-04-02T02:28:15.874Z,100923.06
2023-04-02T02:29:23.750Z,100925.78
2023-04-02T02:30:31.172Z,100922.81
2023-04-02T02:31:38.253Z,100926.94
2023-04-02T02:32:49.769Z,100918.78
2023-04-02T02:33:59.842Z,100917.44
2023-04-02T02:35:08.793Z,100911.72
2023-04-02T02:36:24.301Z,100909.81
2023-04-02T02:37:32.028Z,100911.19
2023-04-02T02:38:53.262Z,100904.38
2023-04-02T02:40:00.158Z,100917.91
2023-04-02T02:41:10.351Z,100911.06
2023-04-02T02:42:21.714Z,100910.84
2023-04-02T02:43:27.917Z,100909.50
2023-04-02T02:44:36.843Z,100909.22
2023-04-02T02:45:44.017Z,100909.81
2023-04-02T02:46:54.016Z,100915.03
2023-04-02T02:47:59.432Z,100909.28
2023-04-02T02:49:07.941Z,100915.59
2023-04-02T02:50:21.328Z,100916.75
2023-04-02T02:51:33.429Z,100905.50
2023-04-02T02:52:39.811Z,100907.16
2023-04-02T02:53:51.776Z,100904.41
2023-04-02T02:54:59.001Z,100902.00
2023-04-02T02:56:06.061Z,100904.78
2023-04-02T02:57:13.531Z,100897.94
2023-04-02T02:58:21.641Z,100893.59
2023-04-02T02:59:27.302Z,100896.91
2023-04-02T03:00:35.179Z,100901.06
2023-04-02T03:01:40.985Z,100905.19
2023-04-02T03:02:48.980Z,100904.09
2023-04-02T03:03:56.520Z,100906.31
2023-04-02T03:05:06.271Z,100898.66
2023-04-02T03:06:13.518Z,100903.06
2023-04-02T03:07:20.811Z,100897.31
2023-04-02T03:08:29.859Z,100893.47
2023-04-02T03:09:42.965Z,100894.03
2023-04-02T03:10:53.017Z,100888.06
2023-04-02T03:12:06.170Z,100897.94
2023-04-02T03:13:21.166Z,100890.59
2023-04-02T03:14:32.777Z,100884.81
2023-04-02T03:15:43.406Z,100882.38
2023-04-02T03:16:50.972Z,100890.09
2023-04-02T03:17:59.808Z,100884.09
2023-04-02T03:19:09.537Z,100890.13
2023-04-02T03:20:20.256Z,100881.66
2023-04-02T03:21:31.389Z,100876.97
2023-04-02T03:22:39.908Z,100881.94
2023-04-02T03:23:48.769Z,100881.41
2023-04-02T03:24:58.301Z,100883.06
2023-04-02T03:26:08.389Z,100880.31
2023-04-02T03:27:18.309Z,100879.22
2023-04-02T03:28:27.213Z,100890.53
2023-04-02T03:29:34.503Z,100877.63
2023-04-02T03:30:45.309Z,100884.25
2023-04-02T03:31:52.649Z,100880.13
2023-04-02T03:33:02.111Z,100880.13
2023-04-02T03:34:11.872Z,100876.28
2023-04-02T03:35:25.731Z,100877.94
2023-04-02T03:36:34.816Z,100868.59
2023-04-02T03:37:44.888Z,100876.59
2023-04-02T03:38:54.763Z,100875.22
2023-04-02T03:40:05.752Z,100866.69
2023-04-02T03:41:17.267Z,100872.50
2023-04-02T03:42:26.689Z,100872.84
2023-04-02T03:43:43.351Z,100859.09
2023-04-02T03:44:52.145Z,100866.25
2023-04-02T03:46:02.335Z,100859.66
2023-04-02T03:47:15.032Z,100856.63
2023-04-02T03:48:23.357Z,100856.38
2023-04-02T03:49:34.140Z,100853.09
2023-04-02T03:50:45.424Z,100857.78
2023-04-02T03:51:56.218Z,100851.50
2023-04-02T03:53:01.642Z,100850.94
2023-04-02T03:54:09.023Z,100855.09
2023-04-02T03:55:17.341Z,100845.75
2023-04-02T03:56:30.748Z,100848.22
2023-04-02T20:39:49.899Z,100508.75
2023-04-02T20:40:59.484Z,100508.75
2023-04-02T20:42:07.719Z,100507.13
2023-04-02T20:43:14.682Z,100504.66
2023-04-02T20:44:22.972Z,100513.41
2023-04-02T20:45:31.232Z,100524.31
2023-04-02T20:46:38.211Z,100524.31
2023-04-02T20:47:43.826Z,100510.66
2023-04-02T20:48:50.852Z,100512.88
2023-04-02T20:49:57.798Z,100512.88
2023-04-02T20:51:04.591Z,100512.66
2023-04-02T20:52:11.716Z,100510.50
2023-04-02T20:53:17.336Z,100518.44
2023-04-02T20:54:24.180Z,100512.97
2023-04-02T20:55:29.688Z,100529.13
2023-04-02T20:56:38.405Z,100517.13
2023-04-02T20:57:45.381Z,100513.31
2023-04-02T20:58:52.263Z,100510.31
2023-04-02T21:00:00.352Z,100510.31
2023-04-02T21:01:10.852Z,100512.22
2023-04-02T21:02:17.829Z,100514.72
2023-04-02T21:03:23.332Z,100507.34
2023-04-02T21:04:31.908Z,100513.66
2023-04-02T21:05:37.488Z,100511.75
2023-04-02T21:06:45.369Z,100515.31
2023-04-02T21:07:50.921Z,100518.03
2023-04-02T21:08:57.807Z,100512.56
2023-04-02T21:10:03.741Z,100509.84
2023-04-02T21:11:10.894Z,100516.94
2023-04-02T21:12:19.535Z,100520.78
2023-04-02T21:13:24.993Z,100513.41
2023-04-02T21:14:37.058Z,100514.22
2023-04-02T21:15:44.846Z,100512.56
2023-04-02T21:16:51.864Z,100511.75
2023-04-02T21:17:57.695Z,100514.47
2023-04-02T21:19:05.553Z,100520.16
2023-04-02T21:20:12.602Z,100516.38
2023-04-02T21:21:20.134Z,100521.00
2023-04-02T21:22:25.869Z,100520.16
2023-04-02T21:23:32.898Z,100517.44
2023-04-02T21:24:38.454Z,100525.63
2023-04-02T21:25:45.264Z,100523.97
2023-04-02T21:26:52.125Z,100528.63
2023-04-02T21:27:59.464Z,100514.13
2023-04-02T21:29:06.602Z,100524.25
2023-04-02T21:30:12.997Z,100528.28
2023-04-02T21:31:20.861Z,100523.91
2023-04-02T21:32:26.439Z,100528.53
2023-04-02T21:33:33.383Z,100518.69
2023-04-02T21:34:40.361Z,100518.94
2023-04-02T21:35:47.254Z,100532.59
2023-04-02T21:36:54.226Z,100530.34
2023-04-02T21:37:59.751Z,100532.00
2023-04-02T21:39:08.413Z,100533.09
2023-04-02T21:40:14.302Z,100532.00
2023-04-02T21:41:22.921Z,100531.44
2023-04-02T21:42:29.363Z,100535.25
2023-04-02T21:43:38.027Z,100534.44
2023-04-02T21:44:44.910Z,100533.59
2023-04-02T21:45:50.430Z,100529.22
2023-04-02T21:46:57.375Z,100538.72
2023-04-02T21:48:03.004Z,100535.50
2023-04-02T21:49:11.129Z,100537.63
2023-04-02T21:50:16.716Z,100534.91
2023-04-02T21:51:25.565Z,100537.63
2023-04-02T21:52:32.465Z,100536.81
2023-04-02T21:53:38.014Z,100535.97
2023-04-02T21:54:44.851Z,100538.72
2023-04-02T21:55:50.493Z,100542.28
2023-04-02T21:56:57.453Z,100554.03
2023-04-02T21:58:02.953Z,100542.53
2023-04-02T21:59:13.089Z,100549.06
2023-04-02T22:00:20.531Z,100547.16
2023-04-02T22:01:29.999Z,100558.34
2023-04-02T22:02:35.464Z,100551.19
2023-04-02T22:03:42.309Z,100551.44
2023-04-02T22:04:47.727Z,100555.00
2023-04-02T22:05:54.425Z,100555.84
2023-04-02T22:06:59.785Z,100557.75
2023-04-02T22:08:07.147Z,100553.34
2023-04-02T22:09:14.194Z,100551.44
2023-04-02T22:10:21.048Z,100550.63
2023-04-02T22:11:27.551Z,100556.91
2023-04-02T22:12:34.454Z,100564.03
2023-04-02T22:13:40.255Z,100568.66
2023-04-02T22:14:48.749Z,100563.19
2023-04-02T22:15:54.064Z,100567.00
2023-04-02T22:17:01.514Z,100570.56
2023-04-02T22:18:07.243Z,100568.91
2023-04-02T22:19:16.184Z,100575.47
2023-04-02T22:20:21.589Z,100579.28
2023-04-02T22:21:28.709Z,100570.22
2023-04-02T22:22:34.390Z,100577.84
2023-04-02T22:23:41.318Z,100586.84
2023-04-02T22:24:46.708Z,100579.50
2023-04-02T22:25:53.416Z,100579.75
2023-04-02T22:27:00.139Z,100582.47
2023-04-02T22:28:05.529Z,100586.84
2023-04-02T22:29:12.297Z,100577.00
2023-04-02T22:30:19.721Z,100584.38
2023-04-02T22:31:28.225Z,100582.47
2023-04-02T22:32:33.708Z,100578.91
2023-04-02T22:33:40.525Z,100581.91
2023-04-02T22:34:47.128Z,100590.09
2023-04-02T22:35:54.743Z,100585.69
2023-04-02T22:37:00.179Z,100584.28
2023-04-02T22:38:06.880Z,100587.00
2023-04-02T22:39:13.725Z,100590.81
2023-04-02T22:40:21.661Z,100587.53
2023-04-02T22:41:28.948Z,100594.84
2023-04-02T22:42:37.454Z,100592.13
2023-04-02T22:43:44.378Z,100593.19
2023-04-02T22:44:51.102Z,100605.19
2023-04-02T22:45:58.312Z,100598.09
2023-04-02T22:47:05.050Z,100609.25
2023-04-02T22:48:10.455Z,100606.53
2023-04-02T22:49:20.454Z,100609.47
2023-04-02T22:50:26.344Z,100612.72
2023-04-02T22:51:33.745Z,100616.75
2023-04-02T22:52:39.193Z,100605.81
2023-04-02T22:53:47.046Z,100611.50
2023-04-02T22:54:52.405Z,100613.41
2023-04-02T22:55:59.233Z,100608.19
2023-04-02T22:57:05.033Z,100616.38
2023-04-02T22:58:11.764Z,100620.19
2023-04-02T22:59:17.289Z,100621.50
2023-04-02T23:00:24.596Z,100613.56
2023-04-02T23:01:33.233Z,100614.84
2023-04-02T23:02:39.994Z,100623.66
2023-04-02T23:03:45.562Z,100623.91
2023-04-02T23:04:52.269Z,100625.75
2023-04-02T23:06:04.423Z,100626.00
2023-04-02T23:07:11.247Z,100628.75
2023-04-02T23:08:16.635Z,100621.38
2023-04-02T23:09:23.467Z,100629.00
2023-04-02T23:10:29.160Z,100624.63
2023-04-02T23:11:37.539Z,100629.25
2023-04-02T23:12:42.902Z,100628.63
2023-04-02T23:13:51.481Z,100634.34
2023-04-02T23:14:58.644Z,100638.16
2023-04-02T23:16:06.157Z,100633.78
2023-04-02T23:17:13.270Z,100642.19
2023-04-02T23:18:19.923Z,100641.34
2023-04-02T23:19:25.215Z,100644.91
2023-04-02T23:20:31.959Z,100647.63
2023-04-02T23:21:38.661Z,100644.06
2023-04-02T23:22:43.973Z,100648.72
2023-04-02T23:23:51.974Z,100645.41
2023-04-02T23:24:58.668Z,100648.72
2023-04-02T23:26:08.784Z,100645.16
2023-04-02T23:27:15.474Z,100652.25
2023-04-02T23:28:22.337Z,100644.91
2023-04-02T23:29:27.934Z,100645.16
2023-04-02T23:30:34.810Z,100647.88
2023-04-02T23:31:41.779Z,100645.97
2023-04-02T23:32:48.925Z,100649.78
2023-04-02T23:33:56.235Z,100657.97
2023-04-02T23:35:01.810Z,100657.97
2023-04-02T23:36:11.881Z,100650.84
2023-04-02T23:37:17.987Z,100655.25
2023-04-02T23:38:24.716Z,100650.84
2023-04-02T23:39:30.157Z,100657.97
2023-04-02T23:40:38.443Z,100660.69
2023-04-02T23:41:45.028Z,100667.81
2023-04-02T23:42:51.803Z,100667.81
2023-04-02T23:43:57.474Z,100673.00
2023-04-02T23:45:04.218Z,100675.53
2023-04-02T23:46:09.674Z,100682.88
2023-04-02T23:47:16.408Z,100682.06
2023-04-02T23:48:23.519Z,100683.09
2023-04-02T23:49:30.240Z,100683.72
2023-04-02T23:50:35.931Z,100683.94
2023-04-02T23:51:43.044Z,100685.63
2023-04-02T23:52:49.002Z,100688.09
2023-04-02T23:53:56.805Z,100684.28
2023-04-02T23:55:02.195Z,100689.75
2023-04-02T23:56:09.282Z,100689.50
2023-04-02T23:57:14.867Z,100694.13
2023-04-02T23:58:21.670Z,100695.78
2023-04-02T23:59:27.040Z,100700.41
